sensor_id;sensor_type;location;lat;lon;timestamp;pressure;altitude;pressure_sealevel;temperature;humidity
58534;BME280;44109;52.398;7.024;2022-11-20T00:01:04;101137.44;;;-3.40;82.85
58534;BME280;44109;52.398;7.024;2022-11-20T00:03:32;101134.16;;;-3.42;83.65
58534;BME280;44109;52.398;7.024;2022-11-20T00:06:00;101133.66;;;-3.39;83.76
58534;BME280;44109;52.398;7.024;2022-11-20T00:08:28;101142.31;;;-3.42;83.08
58534;BME280;44109;52.398;7.024;2022-11-20T00:10:57;101137.97;;;-3.48;83.00
58534;BME280;44109;52.398;7.024;2022-11-20T00:13:24;101146.38;;;-3.44;82.70
58534;BME280;44109;52.398;7.024;2022-11-20T00:15:57;101134.16;;;-3.52;83.73
58534;BME280;44109;52.398;7.024;2022-11-20T00:18:25;101144.47;;;-3.44;83.64
58534;BME280;44109;52.398;7.024;2022-11-20T00:20:53;101146.09;;;-3.43;82.92
58534;BME280;44109;52.398;7.024;2022-11-20T00:23:27;101133.06;;;-3.46;83.49
58534;BME280;44109;52.398;7.024;2022-11-20T00:25:54;101142.81;;;-3.50;82.82
58534;BME280;44109;52.398;7.024;2022-11-20T00:28:23;101141.75;;;-3.54;83.17
58534;BME280;44109;52.398;7.024;2022-11-20T00:30:51;101138.47;;;-3.56;82.78
58534;BME280;44109;52.398;7.024;2022-11-20T00:33:18;101111.88;;;-3.69;83.00
58534;BME280;44109;52.398;7.024;2022-11-20T00:35:46;101133.03;;;-3.61;82.27
58534;BME280;44109;52.398;7.024;2022-11-20T00:38:13;101125.44;;;-3.64;82.92
58534;BME280;44109;52.398;7.024;2022-11-20T00:40:41;101130.34;;;-3.61;82.97
58534;BME280;44109;52.398;7.024;2022-11-20T00:43:08;101127.63;;;-3.61;82.69
58534;BME280;44109;52.398;7.024;2022-11-20T00:45:37;101127.09;;;-3.63;82.47
58534;BME280;44109;52.398;7.024;2022-11-20T00:48:06;101129.53;;;-3.62;82.74
58534;BME280;44109;52.398;7.024;2022-11-20T00:50:33;101112.16;;;-3.61;83.55
58534;BME280;44109;52.398;7.024;2022-11-20T00:53:01;101129.81;;;-3.53;83.83
58534;BME280;44109;52.398;7.024;2022-11-20T00:55:28;101123.31;;;-3.52;83.42
58534;BME280;44109;52.398;7.024;2022-11-20T00:57:56;101113.00;;;-3.50;83.74
58534;BME280;44109;52.398;7.024;2022-11-20T01:00:23;101115.16;;;-3.52;83.11
58534;BME280;44109;52.398;7.024;2022-11-20T01:02:52;101108.38;;;-3.54;83.11
58534;BME280;44109;52.398;7.024;2022-11-20T01:05:22;101090.47;;;-3.55;83.02
58534;BME280;44109;52.398;7.024;2022-11-20T01:07:50;101094.56;;;-3.58;82.79
58534;BME280;44109;52.398;7.024;2022-11-20T01:10:17;101090.19;;;-3.59;82.78
58534;BME280;44109;52.398;7.024;2022-11-20T01:12:45;101093.19;;;-3.61;83.04
58534;BME280;44109;52.398;7.024;2022-11-20T01:15:33;101094.56;;;-3.63;83.21
58534;BME280;44109;52.398;7.024;2022-11-20T01:18:03;101103.22;;;-3.66;82.53
58534;BME280;44109;52.398;7.024;2022-11-20T01:20:34;101096.72;;;-3.65;82.54
58534;BME280;44109;52.398;7.024;2022-11-20T01:23:02;101096.44;;;-3.64;83.38
58534;BME280;44109;52.398;7.024;2022-11-20T01:25:29;101087.78;;;-3.61;82.81
58534;BME280;44109;52.398;7.024;2022-11-20T01:27:57;101079.91;;;-3.62;83.26
58534;BME280;44109;52.398;7.024;2022-11-20T01:30:24;101083.72;;;-3.63;83.33
58534;BME280;44109;52.398;7.024;2022-11-20T01:32:52;101081.00;;;-3.63;82.53
58534;BME280;44109;52.398;7.024;2022-11-20T01:35:21;101075.31;;;-3.62;83.13
58534;BME280;44109;52.398;7.024;2022-11-20T01:37:49;101073.41;;;-3.66;82.83
58534;BME280;44109;52.398;7.024;2022-11-20T01:40:17;101076.09;;;-3.71;82.59
58534;BME280;44109;52.398;7.024;2022-11-20T01:42:47;101074.44;;;-3.83;85.97
58534;BME280;44109;52.398;7.024;2022-11-20T01:45:57;101080.72;;;-3.62;85.77
58534;BME280;44109;52.398;7.024;2022-11-20T01:48:37;101077.72;;;-3.75;86.65
58534;BME280;44109;52.398;7.024;2022-11-20T01:51:17;101083.16;;;-3.65;86.52
58534;BME280;44109;52.398;7.024;2022-11-20T01:53:50;101086.97;;;-3.56;85.94
58534;BME280;44109;52.398;7.024;2022-11-20T01:56:22;101086.97;;;-3.61;85.77
58534;BME280;44109;52.398;7.024;2022-11-20T01:58:54;101081.53;;;-3.56;85.44
58534;BME280;44109;52.398;7.024;2022-11-20T02:01:25;101077.75;;;-3.50;84.68
58534;BME280;44109;52.398;7.024;2022-11-20T02:03:53;101082.09;;;-3.54;84.83
58534;BME280;44109;52.398;7.024;2022-11-20T02:06:25;101084.25;;;-3.56;84.26
58534;BME280;44109;52.398;7.024;2022-11-20T02:08:56;101086.97;;;-3.61;84.03
58534;BME280;44109;52.398;7.024;2022-11-20T02:11:23;101083.44;;;-3.67;83.66
58534;BME280;44109;52.398;7.024;2022-11-20T02:13:51;101085.31;;;-3.72;83.09
58534;BME280;44109;52.398;7.024;2022-11-20T02:16:23;101071.72;;;-3.83;82.82
58534;BME280;44109;52.398;7.024;2022-11-20T02:18:54;101059.78;;;-3.92;82.65
58534;BME280;44109;52.398;7.024;2022-11-20T02:21:29;101066.28;;;-3.88;82.12
58534;BME280;44109;52.398;7.024;2022-11-20T02:24:12;101061.97;;;-3.89;82.70
58534;BME280;44109;52.398;7.024;2022-11-20T02:26:47;101070.91;;;-3.88;82.67
58534;BME280;44109;52.398;7.024;2022-11-20T02:29:23;101069.28;;;-3.89;82.19
58534;BME280;44109;52.398;7.024;2022-11-20T02:31:55;101066.81;;;-3.91;82.03
58534;BME280;44109;52.398;7.024;2022-11-20T02:34:25;101068.19;;;-3.93;82.20
58534;BME280;44109;52.398;7.024;2022-11-20T02:36:53;101063.03;;;-3.95;81.80
58534;BME280;44109;52.398;7.024;2022-11-20T02:39:24;101054.31;;;-4.02;81.70
58534;BME280;44109;52.398;7.024;2022-11-20T02:41:54;101072.47;;;-4.07;82.78
58534;BME280;44109;52.398;7.024;2022-11-20T02:44:23;101073.00;;;-4.00;84.92
58534;BME280;44109;52.398;7.024;2022-11-20T02:46:51;101063.28;;;-3.91;84.71
58534;BME280;44109;52.398;7.024;2022-11-20T02:49:18;101066.84;;;-3.80;83.96
58534;BME280;44109;52.398;7.024;2022-11-20T02:51:46;101060.34;;;-3.79;83.87
58534;BME280;44109;52.398;7.024;2022-11-20T02:54:13;101055.47;;;-3.83;83.29
58534;BME280;44109;52.398;7.024;2022-11-20T02:56:42;101067.09;;;-3.87;82.95
58534;BME280;44109;52.398;7.024;2022-11-20T02:59:10;101058.16;;;-3.93;83.18
58534;BME280;44109;52.398;7.024;2022-11-20T03:01:37;101059.47;;;-3.95;83.16
58534;BME280;44109;52.398;7.024;2022-11-20T03:04:05;101054.63;;;-3.93;82.57
58534;BME280;44109;52.398;7.024;2022-11-20T03:06:33;101049.47;;;-3.95;82.31
58534;BME280;44109;52.398;7.024;2022-11-20T03:09:00;101051.63;;;-3.97;82.40
58534;BME280;44109;52.398;7.024;2022-11-20T03:11:28;101037.25;;;-4.07;82.05
58534;BME280;44109;52.398;7.024;2022-11-20T03:13:57;101035.38;;;-4.02;82.71
58534;BME280;44109;52.398;7.024;2022-11-20T03:16:28;101036.75;;;-3.99;83.00
58534;BME280;44109;52.398;7.024;2022-11-20T03:18:55;101027.22;;;-4.02;82.40
58534;BME280;44109;52.398;7.024;2022-11-20T03:21:23;101030.47;;;-4.00;83.04
58534;BME280;44109;52.398;7.024;2022-11-20T03:23:50;101018.00;;;-4.11;82.45
58534;BME280;44109;52.398;7.024;2022-11-20T03:26:21;101035.38;;;-4.02;82.78
58534;BME280;44109;52.398;7.024;2022-11-20T03:28:51;101037.53;;;-4.04;82.58
58534;BME280;44109;52.398;7.024;2022-11-20T03:31:22;101032.38;;;-4.05;82.57
58534;BME280;44109;52.398;7.024;2022-11-20T03:33:51;101026.66;;;-4.09;82.28
58534;BME280;44109;52.398;7.024;2022-11-20T03:36:20;101028.56;;;-4.10;82.49
58534;BME280;44109;52.398;7.024;2022-11-20T03:38:48;101017.19;;;-4.17;81.89
58534;BME280;44109;52.398;7.024;2022-11-20T03:41:18;101026.13;;;-4.16;82.03
58534;BME280;44109;52.398;7.024;2022-11-20T03:43:48;101028.25;;;-4.18;81.40
58534;BME280;44109;52.398;7.024;2022-11-20T03:46:16;101025.31;;;-4.17;82.14
58534;BME280;44109;52.398;7.024;2022-11-20T03:48:45;101022.31;;;-4.20;81.57
58534;BME280;44109;52.398;7.024;2022-11-20T03:51:16;101021.22;;;-4.24;81.19
58534;BME280;44109;52.398;7.024;2022-11-20T03:53:46;101015.22;;;-4.31;81.15
58534;BME280;44109;52.398;7.024;2022-11-20T03:56:16;101020.66;;;-4.26;81.40
58534;BME280;44109;52.398;7.024;2022-11-20T03:58:45;101010.91;;;-4.27;81.49
58534;BME280;44109;52.398;7.024;2022-11-20T04:01:14;101017.66;;;-4.30;80.92
58534;BME280;44109;52.398;7.024;2022-11-20T04:03:45;101013.59;;;-4.32;81.28
58534;BME280;44109;52.398;7.024;2022-11-20T04:06:14;101024.97;;;-4.30;82.05
58534;BME280;44109;52.398;7.024;2022-11-20T04:08:43;101020.09;;;-4.34;81.68
58534;BME280;44109;52.398;7.024;2022-11-20T04:11:13;101019.81;;;-4.32;81.21
58534;BME280;44109;52.398;7.024;2022-11-20T04:13:45;101016.28;;;-4.32;81.17
58534;BME280;44109;52.398;7.024;2022-11-20T04:16:15;101008.16;;;-4.32;81.81
58534;BME280;44109;52.398;7.024;2022-11-20T04:18:45;100997.84;;;-4.41;81.52
58534;BME280;44109;52.398;7.024;2022-11-20T04:21:13;101009.78;;;-4.37;81.70
58534;BME280;44109;52.398;7.024;2022-11-20T04:23:41;101004.94;;;-4.35;82.21
58534;BME280;44109;52.398;7.024;2022-11-20T04:26:10;100999.50;;;-4.35;81.74
58534;BME280;44109;52.398;7.024;2022-11-20T04:28:39;100993.28;;;-4.35;81.59
58534;BME280;44109;52.398;7.024;2022-11-20T04:31:08;100999.50;;;-4.40;80.98
58534;BME280;44109;52.398;7.024;2022-11-20T04:33:37;100993.53;;;-4.42;81.42
58534;BME280;44109;52.398;7.024;2022-11-20T04:36:09;100990.81;;;-4.42;81.72
58534;BME280;44109;52.398;7.024;2022-11-20T04:38:39;100989.69;;;-4.51;81.14
58534;BME280;44109;52.398;7.024;2022-11-20T04:41:09;100993.53;;;-4.37;81.33
58534;BME280;44109;52.398;7.024;2022-11-20T04:43:41;100982.69;;;-4.37;81.47
58534;BME280;44109;52.398;7.024;2022-11-20T04:46:12;100985.69;;;-4.38;81.83
58534;BME280;44109;52.398;7.024;2022-11-20T04:48:40;100977.28;;;-4.37;81.76
58534;BME280;44109;52.398;7.024;2022-11-20T04:51:09;100974.03;;;-4.39;81.16
58534;BME280;44109;52.398;7.024;2022-11-20T04:53:36;100977.84;;;-4.40;81.91
58534;BME280;44109;52.398;7.024;2022-11-20T04:56:07;100972.97;;;-4.38;81.93
58534;BME280;44109;52.398;7.024;2022-11-20T04:58:37;100963.75;;;-4.37;81.38
58534;BME280;44109;52.398;7.024;2022-11-20T05:01:06;100964.84;;;-4.38;82.13
58534;BME280;44109;52.398;7.024;2022-11-20T05:03:36;100954.81;;;-4.42;81.16
58534;BME280;44109;52.398;7.024;2022-11-20T05:06:05;100968.63;;;-4.44;81.44
58534;BME280;44109;52.398;7.024;2022-11-20T05:08:35;100960.50;;;-4.44;81.73
58534;BME280;44109;52.398;7.024;2022-11-20T05:11:04;100959.94;;;-4.41;81.88
58534;BME280;44109;52.398;7.024;2022-11-20T05:13:34;100971.63;;;-4.40;81.38
58534;BME280;44109;52.398;7.024;2022-11-20T05:16:02;100968.06;;;-4.46;81.82
58534;BME280;44109;52.398;7.024;2022-11-20T05:18:30;100966.59;;;-4.69;84.54
58534;BME280;44109;52.398;7.024;2022-11-20T05:20:58;100970.44;;;-4.60;86.59
58534;BME280;44109;52.398;7.024;2022-11-20T05:23:26;100972.97;;;-4.32;85.67
58534;BME280;44109;52.398;7.024;2022-11-20T05:25:58;100958.34;;;-4.37;85.92
58534;BME280;44109;52.398;7.024;2022-11-20T05:28:27;100960.28;;;-4.22;85.18
58534;BME280;44109;52.398;7.024;2022-11-20T05:30:55;100954.59;;;-4.20;84.07
58534;BME280;44109;52.398;7.024;2022-11-20T05:33:32;100960.00;;;-4.20;84.26
58534;BME280;44109;52.398;7.024;2022-11-20T05:36:00;100960.28;;;-4.22;83.87
58534;BME280;44109;52.398;7.024;2022-11-20T05:38:27;100955.13;;;-4.18;84.12
58534;BME280;44109;52.398;7.024;2022-11-20T05:41:03;100950.25;;;-4.21;83.88
58534;BME280;44109;52.398;7.024;2022-11-20T05:43:32;100956.22;;;-4.24;83.36
58534;BME280;44109;52.398;7.024;2022-11-20T05:46:01;100954.31;;;-4.24;83.45
58534;BME280;44109;52.398;7.024;2022-11-20T05:48:29;100952.16;;;-4.27;83.23
58534;BME280;44109;52.398;7.024;2022-11-20T05:50:57;100951.59;;;-4.29;83.14
58534;BME280;44109;52.398;7.024;2022-11-20T05:53:25;100952.94;;;-4.31;82.63
58534;BME280;44109;52.398;7.024;2022-11-20T05:55:58;100936.13;;;-4.39;82.46
58534;BME280;44109;52.398;7.024;2022-11-20T05:58:27;100943.97;;;-4.37;82.24
58534;BME280;44109;52.398;7.024;2022-11-20T06:00:55;100948.06;;;-4.40;82.16
58534;BME280;44109;52.398;7.024;2022-11-20T06:03:30;100940.97;;;-4.46;82.10
58534;BME280;44109;52.398;7.024;2022-11-20T06:05:58;100943.44;;;-4.44;82.41
58534;BME280;44109;52.398;7.024;2022-11-20T06:08:26;100940.97;;;-4.46;81.93
58534;BME280;44109;52.398;7.024;2022-11-20T06:10:53;100948.03;;;-4.45;81.53
58534;BME280;44109;52.398;7.024;2022-11-20T06:13:22;100953.47;;;-4.45;82.09
58534;BME280;44109;52.398;7.024;2022-11-20T06:15:50;100958.81;;;-4.50;82.01
58534;BME280;44109;52.398;7.024;2022-11-20T06:18:19;100968.63;;;-4.39;82.16
58534;BME280;44109;52.398;7.024;2022-11-20T06:20:47;100956.19;;;-4.29;82.30
58534;BME280;44109;52.398;7.024;2022-11-20T06:23:14;100962.72;;;-4.15;83.52
58534;BME280;44109;52.398;7.024;2022-11-20T06:25:42;100958.94;;;-4.09;84.63
58534;BME280;44109;52.398;7.024;2022-11-20T06:28:10;100972.25;;;-3.92;84.73
58534;BME280;44109;52.398;7.024;2022-11-20T06:30:44;100976.31;;;-3.90;85.04
58534;BME280;44109;52.398;7.024;2022-11-20T06:33:12;100968.97;;;-4.10;87.47
58534;BME280;44109;52.398;7.024;2022-11-20T06:35:40;100955.19;;;-3.77;86.78
58534;BME280;44109;52.398;7.024;2022-11-20T06:38:07;100951.13;;;-3.60;86.14
58534;BME280;44109;52.398;7.024;2022-11-20T06:40:35;100954.66;;;-3.54;85.78
58534;BME280;44109;52.398;7.024;2022-11-20T06:43:02;100958.44;;;-3.60;85.86
58534;BME280;44109;52.398;7.024;2022-11-20T06:45:30;100957.91;;;-3.57;85.99
58534;BME280;44109;52.398;7.024;2022-11-20T06:47:59;100954.38;;;-3.47;85.30
58534;BME280;44109;52.398;7.024;2022-11-20T06:50:26;100946.50;;;-3.44;85.08
58534;BME280;44109;52.398;7.024;2022-11-20T06:52:54;100950.28;;;-3.50;85.15
58534;BME280;44109;52.398;7.024;2022-11-20T06:55:21;100950.31;;;-3.65;84.64
58534;BME280;44109;52.398;7.024;2022-11-20T06:57:50;100944.06;;;-3.55;84.41
58534;BME280;44109;52.398;7.024;2022-11-20T07:00:18;100946.53;;;-3.54;83.65
58534;BME280;44109;52.398;7.024;2022-11-20T07:02:45;100947.06;;;-3.57;83.46
58534;BME280;44109;52.398;7.024;2022-11-20T07:05:14;100947.59;;;-3.60;83.23
58534;BME280;44109;52.398;7.024;2022-11-20T07:07:42;100956.00;;;-3.62;82.83
58534;BME280;44109;52.398;7.024;2022-11-20T07:10:10;100952.50;;;-3.62;83.55
58534;BME280;44109;52.398;7.024;2022-11-20T07:12:38;100961.69;;;-3.68;83.46
58534;BME280;44109;52.398;7.024;2022-11-20T07:15:06;100984.47;;;-3.95;85.71
58534;BME280;44109;52.398;7.024;2022-11-20T07:17:34;100977.94;;;-3.84;86.47
58534;BME280;44109;52.398;7.024;2022-11-20T07:20:02;100981.22;;;-3.51;86.27
58534;BME280;44109;52.398;7.024;2022-11-20T07:22:31;100977.16;;;-3.38;85.78
58534;BME280;44109;52.398;7.024;2022-11-20T07:24:58;100981.22;;;-3.30;85.26
58534;BME280;44109;52.398;7.024;2022-11-20T07:27:26;100975.78;;;-3.20;85.91
58534;BME280;44109;52.398;7.024;2022-11-20T07:29:54;100973.59;;;-3.13;85.52
58534;BME280;44109;52.398;7.024;2022-11-20T07:32:22;100977.94;;;-3.12;85.54
58534;BME280;44109;52.398;7.024;2022-11-20T07:34:50;100975.72;;;-3.00;85.65
58534;BME280;44109;52.398;7.024;2022-11-20T07:37:18;100968.66;;;-2.96;85.50
58534;BME280;44109;52.398;7.024;2022-11-20T07:39:47;100976.78;;;-2.91;85.12
58534;BME280;44109;52.398;7.024;2022-11-20T07:42:14;100983.28;;;-2.87;85.35
58534;BME280;44109;52.398;7.024;2022-11-20T07:44:42;100983.03;;;-2.80;85.74
58534;BME280;44109;52.398;7.024;2022-11-20T07:47:09;100976.75;;;-2.70;85.78
58534;BME280;44109;52.398;7.024;2022-11-20T07:49:37;100981.03;;;-2.59;86.57
58534;BME280;44109;52.398;7.024;2022-11-20T07:52:04;100967.44;;;-2.49;86.60
58534;BME280;44109;52.398;7.024;2022-11-20T07:54:32;100968.75;;;-2.36;86.93
58534;BME280;44109;52.398;7.024;2022-11-20T07:57:01;100964.09;;;-2.31;86.73
58534;BME280;44109;52.398;7.024;2022-11-20T07:59:29;100967.91;;;-2.37;86.89
58534;BME280;44109;52.398;7.024;2022-11-20T08:01:56;100958.31;;;-2.24;86.96
58534;BME280;44109;52.398;7.024;2022-11-20T08:04:24;100959.63;;;-2.11;86.72
58534;BME280;44109;52.398;7.024;2022-11-20T08:06:52;100956.03;;;-2.01;87.24
58534;BME280;44109;52.398;7.024;2022-11-20T08:09:19;100949.78;;;-2.02;86.49
58534;BME280;44109;52.398;7.024;2022-11-20T08:11:47;100959.63;;;-2.11;86.68
58534;BME280;44109;52.398;7.024;2022-11-20T08:14:33;100965.38;;;-2.23;87.59
58534;BME280;44109;52.398;7.024;2022-11-20T08:17:00;100962.59;;;-2.08;88.07
58534;BME280;44109;52.398;7.024;2022-11-20T08:19:28;100958.44;;;-1.95;87.32
58534;BME280;44109;52.398;7.024;2022-11-20T08:21:56;100957.44;;;-1.70;87.93
58534;BME280;44109;52.398;7.024;2022-11-20T08:24:23;100953.44;;;-1.48;88.48
58534;BME280;44109;52.398;7.024;2022-11-20T08:26:52;100945.38;;;-1.30;88.84
58534;BME280;44109;52.398;7.024;2022-11-20T08:29:20;100949.16;;;-1.25;88.38
58534;BME280;44109;52.398;7.024;2022-11-20T08:31:49;100943.56;;;-1.10;88.37
58534;BME280;44109;52.398;7.024;2022-11-20T08:34:16;100949.94;;;-0.96;88.72
58534;BME280;44109;52.398;7.024;2022-11-20T08:36:44;100947.94;;;-0.85;88.92
58534;BME280;44109;52.398;7.024;2022-11-20T08:39:12;100955.03;;;-0.65;90.08
58534;BME280;44109;52.398;7.024;2022-11-20T08:41:40;100957.69;;;-0.60;89.84
58534;BME280;44109;52.398;7.024;2022-11-20T08:44:08;100961.66;;;-0.71;88.72
58534;BME280;44109;52.398;7.024;2022-11-20T08:46:36;100953.34;;;-0.61;89.26
58534;BME280;44109;52.398;7.024;2022-11-20T08:49:08;100950.16;;;-0.44;89.31
58534;BME280;44109;52.398;7.024;2022-11-20T08:51:38;100956.28;;;-0.34;89.24
58534;BME280;44109;52.398;7.024;2022-11-20T08:54:06;100949.38;;;-0.50;87.93
58534;BME280;44109;52.398;7.024;2022-11-20T08:56:35;100951.34;;;-0.32;89.16
58534;BME280;44109;52.398;7.024;2022-11-20T08:59:02;100945.75;;;-0.21;88.64
58534;BME280;44109;52.398;7.024;2022-11-20T09:01:30;100943.53;;;-0.19;88.68
58534;BME280;44109;52.398;7.024;2022-11-20T09:03:58;100932.56;;;-0.14;88.28
58534;BME280;44109;52.398;7.024;2022-11-20T09:06:27;100927.91;;;-0.14;88.23
58534;BME280;44109;52.398;7.024;2022-11-20T09:08:54;100923.34;;;-0.18;87.98
58534;BME280;44109;52.398;7.024;2022-11-20T09:11:22;100927.72;;;-0.17;88.02
58534;BME280;44109;52.398;7.024;2022-11-20T09:13:50;100927.72;;;-0.17;87.49
58534;BME280;44109;52.398;7.024;2022-11-20T09:16:18;100936.41;;;-0.15;87.33
58534;BME280;44109;52.398;7.024;2022-11-20T09:18:46;100931.81;;;-0.20;86.83
58534;BME280;44109;52.398;7.024;2022-11-20T09:21:13;100928.28;;;-0.20;87.48
58534;BME280;44109;52.398;7.024;2022-11-20T09:23:42;100905.09;;;-0.18;86.76
58534;BME280;44109;52.398;7.024;2022-11-20T09:26:12;100911.34;;;-0.17;86.59
58534;BME280;44109;52.398;7.024;2022-11-20T09:28:41;100903.25;;;-0.22;86.74
58534;BME280;44109;52.398;7.024;2022-11-20T09:31:13;100910.03;;;-0.20;87.34
58534;BME280;44109;52.398;7.024;2022-11-20T09:33:46;100912.25;;;-0.22;87.19
58534;BME280;44109;52.398;7.024;2022-11-20T09:36:14;100914.09;;;-0.17;87.04
58534;BME280;44109;52.398;7.024;2022-11-20T09:38:45;100913.13;;;-0.27;86.49
58534;BME280;44109;52.398;7.024;2022-11-20T09:41:31;100897.41;;;-0.16;86.48
58534;BME280;44109;52.398;7.024;2022-11-20T09:44:23;100897.41;;;-0.16;86.51
58534;BME280;44109;52.398;7.024;2022-11-20T09:47:08;100893.34;;;-0.18;86.28
58534;BME280;44109;52.398;7.024;2022-11-20T09:49:58;100901.84;;;-0.20;86.67
58534;BME280;44109;52.398;7.024;2022-11-20T09:52:44;100901.47;;;-0.13;87.19
58534;BME280;44109;52.398;7.024;2022-11-20T09:55:32;100898.28;;;-0.02;87.50
58534;BME280;44109;52.398;7.024;2022-11-20T09:58:05;100884.28;;;0.05;87.30
58534;BME280;44109;52.398;7.024;2022-11-20T10:00:37;100881.75;;;0.09;87.13
58534;BME280;44109;52.398;7.024;2022-11-20T10:03:12;100885.59;;;0.08;87.59
58534;BME280;44109;52.398;7.024;2022-11-20T10:05:45;100875.09;;;0.01;87.57
58534;BME280;44109;52.398;7.024;2022-11-20T10:08:19;100883.75;;;0.03;87.38
58534;BME280;44109;52.398;7.024;2022-11-20T10:10:54;100883.19;;;0.06;87.12
58534;BME280;44109;52.398;7.024;2022-11-20T10:13:39;100882.28;;;0.11;87.52
58534;BME280;44109;52.398;7.024;2022-11-20T10:16:23;100869.38;;;0.16;87.26
58534;BME280;44109;52.398;7.024;2022-11-20T10:19:08;100874.72;;;0.21;87.08
58534;BME280;44109;52.398;7.024;2022-11-20T10:21:57;100881.81;;;0.22;87.17
58534;BME280;44109;52.398;7.024;2022-11-20T10:24:42;100871.91;;;0.27;87.43
58534;BME280;44109;52.398;7.024;2022-11-20T10:27:30;100871.34;;;0.30;87.81
58534;BME280;44109;52.398;7.024;2022-11-20T10:30:18;100864.47;;;0.32;87.98
58534;BME280;44109;52.398;7.024;2022-11-20T10:32:50;100855.09;;;0.38;88.28
58534;BME280;44109;52.398;7.024;2022-11-20T10:35:23;100855.00;;;0.43;88.54
58534;BME280;44109;52.398;7.024;2022-11-20T10:37:58;100852.38;;;0.52;88.42
58534;BME280;44109;52.398;7.024;2022-11-20T10:40:32;100857.16;;;0.60;89.28
58534;BME280;44109;52.398;7.024;2022-11-20T10:43:09;100854.81;;;0.67;89.07
58534;BME280;44109;52.398;7.024;2022-11-20T10:45:48;100856.63;;;0.86;89.28
58534;BME280;44109;52.398;7.024;2022-11-20T10:48:22;100861.13;;;0.95;89.89
58534;BME280;44109;52.398;7.024;2022-11-20T10:51:12;100845.69;;;1.13;90.07
58534;BME280;44109;52.398;7.024;2022-11-20T10:54:12;100854.59;;;1.33;89.84
58534;BME280;44109;52.398;7.024;2022-11-20T10:56:50;100850.50;;;1.44;89.96
58534;BME280;44109;52.398;7.024;2022-11-20T10:59:50;100843.19;;;1.53;90.57
58534;BME280;44109;52.398;7.024;2022-11-20T11:02:33;100853.38;;;1.75;90.45
58534;BME280;44109;52.398;7.024;2022-11-20T11:05:18;100853.63;;;1.87;90.73
58534;BME280;44109;52.398;7.024;2022-11-20T11:07:56;100843.25;;;1.98;90.62
58534;BME280;44109;52.398;7.024;2022-11-20T11:10:31;100837.16;;;2.01;91.43
58534;BME280;44109;52.398;7.024;2022-11-20T11:13:03;100820.47;;;2.11;91.12
58534;BME280;44109;52.398;7.024;2022-11-20T11:15:38;100818.03;;;2.32;90.73
58534;BME280;44109;52.398;7.024;2022-11-20T11:18:09;100817.44;;;2.44;90.90
58534;BME280;44109;52.398;7.024;2022-11-20T11:25:56;100813.25;;;2.77;91.10
58534;BME280;44109;52.398;7.024;2022-11-20T11:28:26;100808.88;;;2.76;88.91
58534;BME280;44109;52.398;7.024;2022-11-20T11:30:56;100809.09;;;2.89;87.08
58534;BME280;44109;52.398;7.024;2022-11-20T11:33:25;100806.88;;;3.08;87.20
58534;BME280;44109;52.398;7.024;2022-11-20T11:35:55;100798.88;;;3.38;88.11
58534;BME280;44109;52.398;7.024;2022-11-20T11:38:29;100810.31;;;3.66;89.09
58534;BME280;44109;52.398;7.024;2022-11-20T11:41:02;100797.75;;;3.65;84.29
58534;BME280;44109;52.398;7.024;2022-11-20T11:43:33;100802.00;;;4.18;88.88
58534;BME280;44109;52.398;7.024;2022-11-20T11:46:28;100800.28;;;4.60;91.72
58534;BME280;44109;52.398;7.024;2022-11-20T11:49:00;100802.97;;;4.77;90.76
58534;BME280;44109;52.398;7.024;2022-11-20T11:51:33;100791.25;;;4.89;88.20
58534;BME280;44109;52.398;7.024;2022-11-20T11:54:15;100784.66;;;5.11;87.57
58534;BME280;44109;52.398;7.024;2022-11-20T11:56:49;100772.25;;;5.05;83.70
58534;BME280;44109;52.398;7.024;2022-11-20T11:59:25;100781.78;;;5.28;85.52
58534;BME280;44109;52.398;7.024;2022-11-20T12:02:04;100777.88;;;5.29;81.92
58534;BME280;44109;52.398;7.024;2022-11-20T12:04:49;100774.41;;;5.20;80.14
58534;BME280;44109;52.398;7.024;2022-11-20T12:07:36;100771.25;;;5.51;84.42
58534;BME280;44109;52.398;7.024;2022-11-20T12:10:17;100763.88;;;5.43;79.01
58534;BME280;44109;52.398;7.024;2022-11-20T12:12:52;100764.22;;;5.42;78.92
58534;BME280;44109;52.398;7.024;2022-11-20T12:15:30;100761.25;;;5.47;77.82
58534;BME280;44109;52.398;7.024;2022-11-20T12:18:00;100757.69;;;5.46;80.67
58534;BME280;44109;52.398;7.024;2022-11-20T12:20:33;100758.84;;;5.45;80.37
58534;BME280;44109;52.398;7.024;2022-11-20T12:23:16;100751.78;;;5.35;77.85
58534;BME280;44109;52.398;7.024;2022-11-20T12:25:53;100747.63;;;5.29;79.84
58534;BME280;44109;52.398;7.024;2022-11-20T12:28:39;100739.31;;;5.17;79.35
58534;BME280;44109;52.398;7.024;2022-11-20T12:31:41;100743.81;;;5.01;77.72
58534;BME280;44109;52.398;7.024;2022-11-20T12:34:43;100740.25;;;5.00;79.14
58534;BME280;44109;52.398;7.024;2022-11-20T12:37:32;100740.97;;;4.89;78.19
58534;BME280;44109;52.398;7.024;2022-11-20T12:40:23;100747.22;;;4.98;79.84
58534;BME280;44109;52.398;7.024;2022-11-20T12:43:02;100742.66;;;5.02;80.40
58534;BME280;44109;52.398;7.024;2022-11-20T12:46:17;100740.63;;;4.90;78.89
58534;BME280;44109;52.398;7.024;2022-11-20T12:49:20;100740.75;;;4.94;81.10
58534;BME280;44109;52.398;7.024;2022-11-20T12:52:06;100732.47;;;5.02;80.39
58534;BME280;44109;52.398;7.024;2022-11-20T12:55:02;100733.31;;;4.94;79.83
58534;BME280;44109;52.398;7.024;2022-11-20T12:57:46;100720.00;;;5.05;81.77
58534;BME280;44109;52.398;7.024;2022-11-20T13:00:22;100717.59;;;5.24;82.96
58534;BME280;44109;52.398;7.024;2022-11-20T13:03:06;100708.72;;;5.40;83.79
58534;BME280;44109;52.398;7.024;2022-11-20T13:05:55;100701.19;;;5.49;84.36
58534;BME280;44109;52.398;7.024;2022-11-20T13:08:34;100698.03;;;5.59;83.86
58534;BME280;44109;52.398;7.024;2022-11-20T13:11:09;100688.53;;;5.69;85.21
58534;BME280;44109;52.398;7.024;2022-11-20T13:13:56;100670.03;;;5.57;82.80
58534;BME280;44109;52.398;7.024;2022-11-20T13:16:47;100677.84;;;5.55;81.96
58534;BME280;44109;52.398;7.024;2022-11-20T13:19:19;100682.28;;;5.47;81.05
58534;BME280;44109;52.398;7.024;2022-11-20T13:21:48;100666.94;;;5.58;82.75
58534;BME280;44109;52.398;7.024;2022-11-20T13:24:24;100659.28;;;5.64;83.69